Time;durP1;ratioP1;P1;durP2;ratioP2;P2;SDS_P1;SDS_P2;PMS_P1;PMS_P2;Temp;Humidity;BMP_temperature;BMP_pressure;BME280_temperature;BME280_humidity;BME280_pressure;Samples;Min_cycle;Max_cycle;Signal;HPM_P1;HPM_P2
2022/05/13 00:01:39;;;;;;;3.90;3.90;;;;;;;12.45;82.76;101185.69;5115869;28;20181;-69
2022/05/13 00:04:06;;;;;;;3.77;3.73;;;;;;;12.42;82.75;101180.53;5116079;28;20183;-69
2022/05/13 00:06:32;;;;;;;4.03;4.03;;;;;;;12.41;82.64;101179.69;5115493;28;20271;-69
2022/05/13 00:08:59;;;;;;;4.33;4.33;;;;;;;12.39;83.27;101179.75;5115129;28;20254;-69
2022/05/13 00:11:26;;;;;;;4.10;4.07;;;;;;;12.35;84.05;101180.78;5115165;28;20180;-69
2022/05/13 00:13:52;;;;;;;4.10;4.00;;;;;;;12.34;83.97;101183.47;5115011;28;20206;-69
2022/05/13 00:16:19;;;;;;;4.33;4.33;;;;;;;12.31;83.89;101184.47;5115558;28;20195;-69
2022/05/13 00:18:45;;;;;;;4.17;3.90;;;;;;;12.27;84.29;101189.91;5114891;28;20201;-69
2022/05/13 00:21:12;;;;;;;4.63;4.33;;;;;;;12.25;84.01;101192.59;5114942;28;20188;-69
2022/05/13 00:23:38;;;;;;;4.40;4.40;;;;;;;12.26;82.92;101186.41;5115438;28;20200;-69
2022/05/13 00:26:06;;;;;;;4.83;4.63;;;;;;;12.21;82.83;101184.88;5114839;28;20215;-69
2022/05/13 00:28:32;;;;;;;4.63;4.53;;;;;;;12.17;83.14;101185.94;5113782;28;20201;-69
2022/05/13 00:31:01;;;;;;;4.73;4.53;;;;;;;12.16;83.31;101182.47;5114969;28;20547;-69
2022/05/13 00:33:28;;;;;;;4.17;4.07;;;;;;;12.11;83.39;101171.28;5114603;28;20209;-69
2022/05/13 00:35:54;;;;;;;4.60;4.50;;;;;;;12.09;83.14;101176.59;5114625;28;20667;-69
2022/05/13 00:38:21;;;;;;;4.57;4.33;;;;;;;11.96;82.97;101166.66;5115082;28;20225;-69
2022/05/13 00:40:47;;;;;;;4.70;4.43;;;;;;;11.94;82.01;101168.50;5114544;28;20238;-69
2022/05/13 00:43:34;;;;;;;3.93;3.73;;;;;;;12.01;81.38;101164.72;5115040;28;20215;-69
2022/05/13 00:46:03;;;;;;;4.20;3.90;;;;;;;12.06;81.42;101157.50;5114381;28;20659;-69
2022/05/13 00:48:33;;;;;;;4.30;3.90;;;;;;;12.05;80.21;101161.03;5114873;28;20205;-69
2022/05/13 00:51:00;;;;;;;3.77;3.57;;;;;;;11.99;80.09;101154.25;5114376;28;20237;-69
2022/05/13 00:53:27;;;;;;;3.83;3.73;;;;;;;12.08;79.60;101164.41;5114423;28;20634;-69
2022/05/13 00:55:53;;;;;;;6.63;4.37;;;;;;;12.01;79.79;101151.59;5114570;28;20195;-69
2022/05/13 00:58:21;;;;;;;5.27;4.83;;;;;;;11.91;80.33;101160.72;5114387;28;20213;-69
2022/05/13 01:00:47;;;;;;;5.40;5.10;;;;;;;11.88;81.10;101159.09;5114193;28;20226;-69
2022/05/13 01:03:15;;;;;;;4.87;4.77;;;;;;;11.54;83.27;101156.88;5114498;28;20583;-69
2022/05/13 01:05:44;;;;;;;5.13;4.53;;;;;;;11.37;83.95;101152.28;5114112;28;20209;-69
2022/05/13 01:08:11;;;;;;;4.30;4.10;;;;;;;11.51;82.08;101154.41;5114055;28;20185;-69
2022/05/13 01:10:40;;;;;;;4.20;4.07;;;;;;;11.54;81.64;101151.66;5114366;28;20180;-69
2022/05/13 01:13:11;;;;;;;5.03;4.73;;;;;;;11.52;81.72;101156.94;5114041;28;20555;-69
2022/05/13 01:15:40;;;;;;;4.27;3.77;;;;;;;11.51;81.61;101151.78;5114245;28;20242;-69
2022/05/13 01:18:08;;;;;;;5.47;5.17;;;;;;;11.49;81.99;101150.94;5114414;28;20241;-69
2022/05/13 01:20:51;;;;;;;4.87;4.57;;;;;;;11.49;81.78;101149.19;5114201;28;20181;-69
2022/05/13 01:23:21;;;;;;;4.40;4.20;;;;;;;11.54;80.83;101149.88;5113926;28;20184;-69
2022/05/13 01:26:01;;;;;;;5.33;3.87;;;;;;;11.66;79.93;101148.56;5113789;28;20189;-69
2022/05/13 01:28:38;;;;;;;4.20;3.90;;;;;;;11.75;79.06;101144.72;5113791;28;20209;-69
2022/05/13 01:31:09;;;;;;;4.30;3.50;;;;;;;11.61;79.36;101140.00;5114110;28;20175;-69
2022/05/13 01:33:37;;;;;;;4.47;3.80;;;;;;;11.64;79.28;101147.75;5114323;28;20234;-69
2022/05/13 01:36:05;;;;;;;4.07;3.73;;;;;;;11.75;78.82;101147.34;5113724;28;20238;-69
2022/05/13 01:38:35;;;;;;;4.07;3.40;;;;;;;11.74;78.83;101149.09;5113380;28;20296;-69
2022/05/13 01:41:04;;;;;;;3.73;3.63;;;;;;;11.65;79.10;101151.25;5113744;28;20218;-69
2022/05/13 01:43:30;;;;;;;3.53;3.43;;;;;;;11.77;78.61;101156.00;5113677;28;20192;-69
2022/05/13 01:45:58;;;;;;;4.13;3.43;;;;;;;11.62;79.19;101151.34;5113584;28;20189;-69
2022/05/13 01:48:27;;;;;;;4.13;3.83;;;;;;;11.61;79.46;101150.50;5113535;28;20215;-69
2022/05/13 01:50:53;;;;;;;8.97;3.67;;;;;;;11.48;79.90;101151.88;5113589;28;20196;-69
2022/05/13 01:53:20;;;;;;;4.47;4.17;;;;;;;11.52;80.00;101148.22;5113816;28;20626;-69
2022/05/13 01:55:46;;;;;;;4.43;4.03;;;;;;;11.51;80.22;101146.53;5113761;28;20243;-69
2022/05/13 01:58:15;;;;;;;3.60;3.50;;;;;;;11.50;80.21;101142.16;5113718;28;20539;-69
2022/05/13 02:00:43;;;;;;;4.40;4.00;;;;;;;11.47;80.47;101140.53;5113809;28;20185;-69
2022/05/13 02:05:55;;;;;;;3.33;3.30;;;;;;;11.42;80.89;101137.22;5113804;28;20503;-69
2022/05/13 02:08:23;;;;;;;3.03;3.03;;;;;;;11.41;80.94;101126.78;5113386;28;20212;-68
2022/05/13 02:10:50;;;;;;;3.77;3.60;;;;;;;11.39;81.22;101136.50;5113696;28;20185;-68
2022/05/13 02:13:17;;;;;;;3.83;3.73;;;;;;;11.36;81.31;101133.97;5113396;28;20217;-68
2022/05/13 02:15:43;;;;;;;3.70;3.70;;;;;;;11.32;81.62;101132.41;5113320;28;20197;-69
2022/05/13 02:18:10;;;;;;;3.90;3.63;;;;;;;11.29;81.86;101138.63;5113785;28;20230;-69
2022/05/13 02:20:38;;;;;;;3.93;3.73;;;;;;;11.27;82.26;101137.81;5113611;28;20185;-69
2022/05/13 02:23:04;;;;;;;4.30;4.10;;;;;;;11.22;82.51;101140.63;5113577;28;20656;-69
2022/05/13 02:25:32;;;;;;;3.83;3.63;;;;;;;11.18;82.36;101144.25;5113123;28;20194;-69
2022/05/13 02:27:59;;;;;;;4.57;4.37;;;;;;;11.15;82.59;101149.63;5113205;28;20177;-69
2022/05/13 02:30:27;;;;;;;4.03;3.93;;;;;;;11.03;83.01;101148.28;5113495;28;20193;-69
2022/05/13 02:32:55;;;;;;;4.00;3.70;;;;;;;10.86;82.94;101150.66;5113452;28;20192;-69
2022/05/13 02:35:22;;;;;;;4.20;3.80;;;;;;;10.77;83.80;101156.22;5113386;28;20237;-69
2022/05/13 02:37:49;;;;;;;3.60;3.50;;;;;;;10.54;84.96;101157.00;5113181;28;20310;-70
2022/05/13 02:40:17;;;;;;;6.00;3.93;;;;;;;10.53;85.47;101149.22;5113080;28;20201;-69
2022/05/13 02:42:43;;;;;;;3.63;3.63;;;;;;;10.49;86.14;101156.31;5113119;28;20675;-69
2022/05/13 02:45:10;;;;;;;7.50;4.67;;;;;;;10.41;86.78;101155.72;5113054;28;20219;-70
2022/05/13 02:47:37;;;;;;;4.83;4.43;;;;;;;10.43;87.37;101152.16;5113602;28;20564;-70
2022/05/13 02:50:18;;;;;;;8.70;5.23;;;;;;;10.38;88.23;101158.44;5113211;28;20239;-70
2022/05/13 02:52:46;;;;;;;4.73;4.43;;;;;;;10.38;88.40;101161.06;5117062;28;20169;-70
2022/05/13 02:55:13;;;;;;;6.10;5.63;;;;;;;10.38;88.58;101159.28;5116596;28;20204;-70
2022/05/13 02:57:40;;;;;;;5.63;5.43;;;;;;;10.31;89.14;101162.16;5116859;28;20190;-70
2022/05/13 03:00:09;;;;;;;5.57;5.10;;;;;;;10.34;88.42;101156.81;5116798;28;20208;-70
2022/05/13 03:02:36;;;;;;;12.13;5.57;;;;;;;10.26;89.74;101153.59;5116821;28;20267;-69
2022/05/13 03:05:07;;;;;;;5.80;5.37;;;;;;;10.27;90.08;101158.78;5116756;28;20180;-69
2022/05/13 03:07:34;;;;;;;5.67;5.20;;;;;;;10.29;90.53;101164.84;5116684;28;20199;-69
2022/05/13 03:10:00;;;;;;;6.13;5.57;;;;;;;10.25;90.78;101150.13;5116364;28;20216;-69
2022/05/13 03:12:27;;;;;;;6.87;6.40;;;;;;;10.12;91.13;101152.25;5116627;28;20225;-69
2022/05/13 03:14:53;;;;;;;6.00;5.70;;;;;;;10.13;91.32;101143.50;5116387;28;20208;-69
2022/05/13 03:17:20;;;;;;;6.43;5.93;;;;;;;10.18;91.14;101138.97;5116213;28;20187;-69
2022/05/13 03:19:46;;;;;;;6.30;5.70;;;;;;;10.31;91.09;101136.00;5116206;28;20208;-68
2022/05/13 03:22:13;;;;;;;6.70;6.20;;;;;;;10.48;89.99;101134.50;5116418;28;20193;-68
2022/05/13 03:24:39;;;;;;;6.17;5.67;;;;;;;10.42;90.34;101124.25;5116359;28;20693;-69
2022/05/13 03:27:07;;;;;;;7.40;6.30;;;;;;;10.56;89.76;101117.69;5116329;28;20194;-69
2022/05/13 03:29:35;;;;;;;5.60;5.50;;;;;;;10.58;89.87;101123.75;5115908;28;20759;-69
2022/05/13 03:32:06;;;;;;;9.33;6.17;;;;;;;10.60;89.73;101120.16;5116272;28;20179;-69
2022/05/13 03:34:32;;;;;;;6.97;5.40;;;;;;;10.68;88.49;101119.88;5116060;28;20711;-68
2022/05/13 03:36:59;;;;;;;6.87;6.27;;;;;;;10.76;88.32;101125.69;5116358;28;20188;-69
2022/05/13 03:39:25;;;;;;;8.33;5.47;;;;;;;10.73;88.56;101131.06;5115700;28;20204;-69
2022/05/13 03:41:52;;;;;;;5.37;5.07;;;;;;;10.77;87.72;101137.88;5116845;28;20580;-69
2022/05/13 03:44:18;;;;;;;7.37;5.37;;;;;;;10.65;87.88;101141.78;5115650;28;20245;-69
2022/05/13 03:46:44;;;;;;;7.63;4.33;;;;;;;10.58;87.84;101140.31;5115968;28;20191;-69
2022/05/13 03:49:11;;;;;;;6.97;5.67;;;;;;;10.51;88.09;101144.03;5115832;28;20219;-68
2022/05/13 03:51:38;;;;;;;5.80;5.23;;;;;;;10.41;88.75;101146.09;5115512;28;20192;-69
2022/05/13 03:54:05;;;;;;;7.90;4.80;;;;;;;10.48;87.47;101150.22;5115554;28;20579;-69
2022/05/13 03:56:31;;;;;;;5.80;5.50;;;;;;;10.46;87.25;101145.94;5115656;28;20754;-69
2022/05/13 03:58:57;;;;;;;4.23;4.13;;;;;;;10.32;88.17;101146.41;5115376;28;20216;-69
2022/05/13 04:01:24;;;;;;;13.73;5.50;;;;;;;10.38;87.80;101138.34;5115267;28;20194;-69
2022/05/13 04:03:50;;;;;;;5.13;4.37;;;;;;;10.36;87.97;101142.78;5115287;28;20189;-69
2022/05/13 04:09:04;;;;;;;5.03;4.80;;;;;;;10.36;88.11;101145.41;5115481;28;20282;-68
2022/05/13 04:11:42;;;;;;;5.17;4.80;;;;;;;10.30;88.38;101143.00;5115642;28;20181;-68
2022/05/13 04:16:55;;;;;;;4.83;4.73;;;;;;;10.16;89.76;101153.88;5115071;28;20623;-68
2022/05/13 04:19:24;;;;;;;5.13;4.73;;;;;;;10.24;89.44;101161.50;5114844;28;20207;-68
2022/05/13 04:21:51;;;;;;;4.50;4.20;;;;;;;10.22;89.70;101158.06;5115445;28;20196;-68
2022/05/13 04:24:19;;;;;;;7.30;5.10;;;;;;;10.28;89.40;101147.41;5115204;28;20178;-68
2022/05/13 04:26:47;;;;;;;7.87;4.57;;;;;;;10.25;89.86;101150.13;5114746;28;20211;-68
2022/05/13 04:29:14;;;;;;;5.93;4.77;;;;;;;10.30;90.27;101157.84;5114775;28;20242;-69
2022/05/13 04:31:43;;;;;;;6.00;5.00;;;;;;;10.35;90.20;101163.75;5114727;28;20220;-69
2022/05/13 04:34:10;;;;;;;6.63;4.77;;;;;;;10.43;89.80;101161.78;5115245;28;20195;-69
2022/05/13 04:36:37;;;;;;;5.33;4.80;;;;;;;10.46;89.97;101156.41;5114567;28;20215;-69
2022/05/13 04:39:04;;;;;;;5.60;5.13;;;;;;;10.44;nan;101153.84;5114547;28;20610;-68
2022/05/13 04:44:17;;;;;;;10.00;4.20;;;;;;;10.49;89.20;101169.38;5114503;28;20183;-68
2022/05/13 04:46:44;;;;;;;10.23;5.30;;;;;;;10.42;89.31;101162.66;5114502;28;20181;-68
2022/05/13 04:49:11;;;;;;;9.37;4.50;;;;;;;10.51;89.27;101167.59;5114350;28;20201;-69
2022/05/13 04:51:38;;;;;;;12.00;5.30;;;;;;;10.53;88.83;101157.06;5114381;28;20198;-69
2022/05/13 04:54:06;;;;;;;5.60;5.20;;;;;;;10.53;89.15;101164.91;5114269;28;20201;-69
2022/05/13 04:56:32;;;;;;;13.53;4.90;;;;;;;10.59;89.04;101170.81;5114237;28;20204;-68
2022/05/13 04:58:59;;;;;;;5.00;4.57;;;;;;;10.59;89.10;101173.44;5114161;28;20235;-69
2022/05/13 05:01:26;;;;;;;6.70;5.40;;;;;;;10.62;89.52;101177.69;5114766;28;20594;-69
2022/05/13 05:03:52;;;;;;;5.97;5.70;;;;;;;10.61;89.96;101181.22;5114434;28;20185;-69
2022/05/13 05:06:20;;;;;;;7.03;4.57;;;;;;;10.55;90.43;101174.44;5114123;28;20533;-69
2022/05/13 05:08:47;;;;;;;6.73;5.27;;;;;;;10.66;90.10;101185.41;5114085;28;20210;-69
2022/05/13 05:11:15;;;;;;;4.90;4.60;;;;;;;10.71;90.15;101199.19;5114047;28;20568;-69
2022/05/13 05:13:45;;;;;;;5.97;5.30;;;;;;;10.73;90.24;101199.16;5113832;28;20169;-69
2022/05/13 05:16:12;;;;;;;9.53;5.43;;;;;;;10.77;89.97;101199.88;5113910;28;20546;-69
2022/05/13 05:18:39;;;;;;;6.93;4.73;;;;;;;10.72;90.83;101205.31;5113869;28;20216;-69
2022/05/13 05:21:07;;;;;;;4.80;4.50;;;;;;;10.73;90.81;101200.00;5113914;28;20236;-69
2022/05/13 05:23:36;;;;;;;10.17;5.10;;;;;;;10.68;91.40;101201.91;5114160;28;20531;-69
2022/05/13 05:26:03;;;;;;;6.87;5.63;;;;;;;10.80;91.22;101212.91;5114063;28;20196;-69
2022/05/13 05:28:29;;;;;;;5.57;5.07;;;;;;;10.75;91.46;101210.41;5114003;28;20278;-69
2022/05/13 05:30:57;;;;;;;6.13;5.37;;;;;;;10.71;91.74;101214.03;5113806;28;20234;-69
2022/05/13 05:33:23;;;;;;;8.27;5.57;;;;;;;10.77;91.16;101215.59;5113714;28;20552;-69
2022/05/13 05:35:50;;;;;;;9.20;6.30;;;;;;;10.77;91.60;101218.22;5113553;28;20694;-69
2022/05/13 05:38:16;;;;;;;8.27;6.80;;;;;;;10.75;91.84;101227.00;5113545;28;20214;-69
2022/05/13 05:40:43;;;;;;;5.90;5.40;;;;;;;10.86;91.63;101223.13;5113599;28;20274;-69
2022/05/13 05:43:13;;;;;;;11.10;5.40;;;;;;;10.89;92.19;101223.03;5113659;28;20198;-69
2022/05/13 05:45:40;;;;;;;6.33;5.17;;;;;;;10.89;91.61;101233.53;5113827;28;20196;-69
2022/05/13 05:48:13;;;;;;;6.63;5.73;;;;;;;10.87;91.95;101219.63;5113784;28;20218;-69
2022/05/13 05:50:41;;;;;;;11.17;6.10;;;;;;;10.95;91.66;101217.59;5113624;28;20173;-68
2022/05/13 05:53:08;;;;;;;10.97;5.80;;;;;;;10.96;91.59;101229.78;5113511;28;20191;-69
2022/05/13 05:58:20;;;;;;;6.90;6.00;;;;;;;11.12;91.12;101241.44;5113579;28;20213;-69
2022/05/13 06:00:48;;;;;;;7.23;6.30;;;;;;;11.17;91.74;101242.13;5113655;28;20189;-69
2022/05/13 06:03:17;;;;;;;6.87;5.90;;;;;;;11.21;91.43;101230.63;5113469;28;20179;-69
2022/05/13 06:05:49;;;;;;;7.07;6.20;;;;;;;11.27;90.66;101237.41;5113788;28;20169;-69
2022/05/13 06:08:16;;;;;;;7.63;5.30;;;;;;;11.32;91.54;101245.13;5113672;28;20258;-69
2022/05/13 06:10:42;;;;;;;10.43;5.70;;;;;;;11.36;91.09;101244.09;5113277;28;20177;-69
2022/05/13 06:13:10;;;;;;;6.07;5.67;;;;;;;11.47;90.42;101244.56;5113364;28;20648;-69
2022/05/13 06:15:36;;;;;;;6.10;5.70;;;;;;;11.47;90.06;101249.81;5113335;28;20210;-68
2022/05/13 06:18:03;;;;;;;6.70;6.13;;;;;;;11.58;89.79;101250.28;5113167;28;20188;-69
2022/05/13 06:20:31;;;;;;;6.70;6.30;;;;;;;11.61;89.89;101244.91;5113245;28;20181;-69
2022/05/13 06:22:58;;;;;;;14.37;6.87;;;;;;;11.69;89.68;101255.97;5113319;28;20624;-70
2022/05/13 06:25:25;;;;;;;9.00;6.73;;;;;;;11.63;89.16;101253.56;5113744;28;20178;-70
2022/05/13 06:27:53;;;;;;;6.37;6.03;;;;;;;11.75;89.28;101263.63;5117153;28;20169;-70
2022/05/13 06:30:24;;;;;;;6.37;5.80;;;;;;;11.78;88.74;101266.13;5117056;28;20231;-70
2022/05/13 06:32:51;;;;;;;6.30;5.80;;;;;;;11.92;88.87;101256.91;5117420;28;20176;-69
2022/05/13 06:35:19;;;;;;;10.90;6.03;;;;;;;11.99;88.69;101261.84;5117199;28;20270;-70
2022/05/13 06:37:46;;;;;;;16.10;5.73;;;;;;;12.15;87.64;101259.53;5117531;28;20181;-69
2022/05/13 06:40:13;;;;;;;7.43;6.20;;;;;;;12.24;87.78;101272.28;5116854;28;20197;-69
2022/05/13 06:42:40;;;;;;;17.37;7.20;;;;;;;12.27;86.79;101266.03;5117124;28;20310;-69
2022/05/13 06:45:07;;;;;;;21.00;6.60;;;;;;;12.33;86.51;101264.03;5117099;28;20203;-69
2022/05/13 06:47:34;;;;;;;13.03;6.40;;;;;;;12.56;85.98;101273.59;5116853;28;20250;-69
2022/05/13 06:50:03;;;;;;;6.70;6.23;;;;;;;12.67;85.56;101273.19;5116854;28;20213;-69
2022/05/13 06:52:30;;;;;;;13.00;6.17;;;;;;;12.72;85.10;101273.84;5116987;28;20593;-69
2022/05/13 06:55:08;;;;;;;7.27;5.80;;;;;;;12.88;83.10;101284.56;5117165;28;20185;-69
2022/05/13 06:57:34;;;;;;;9.30;6.07;;;;;;;13.06;83.59;101286.41;5116573;28;20181;-70
2022/05/13 07:00:02;;;;;;;5.63;5.10;;;;;;;13.13;84.48;101281.75;5116783;28;20615;-70
2022/05/13 07:02:29;;;;;;;9.33;5.33;;;;;;;13.19;83.72;101289.38;5117026;28;20200;-70
2022/05/13 07:04:56;;;;;;;5.90;5.40;;;;;;;13.16;83.23;101293.00;5116740;28;20670;-69
2022/05/13 07:07:22;;;;;;;5.83;5.53;;;;;;;13.04;81.36;101292.66;5116372;28;20221;-70
2022/05/13 07:09:49;;;;;;;6.10;5.30;;;;;;;13.11;82.56;101296.75;5116282;28;20263;-70
2022/05/13 07:12:16;;;;;;;5.93;5.20;;;;;;;13.09;81.81;101299.44;5116349;28;20189;-70
2022/05/13 07:14:42;;;;;;;4.90;4.63;;;;;;;13.05;81.10;101297.00;5116217;28;20185;-70
2022/05/13 07:17:09;;;;;;;7.93;5.57;;;;;;;13.09;81.46;101298.59;5116143;28;20205;-69
2022/05/13 07:19:35;;;;;;;7.90;5.23;;;;;;;13.15;82.55;101293.09;5116607;28;20201;-69
2022/05/13 07:22:02;;;;;;;11.63;5.70;;;;;;;13.19;82.20;101290.22;5116061;28;20252;-69
2022/05/13 07:24:29;;;;;;;7.97;4.63;;;;;;;13.15;81.75;101298.34;5116091;28;20181;-70
2022/05/13 07:26:55;;;;;;;6.87;6.13;;;;;;;13.15;81.61;101300.97;5116063;28;20188;-70
2022/05/13 07:29:22;;;;;;;5.77;5.30;;;;;;;13.19;81.33;101300.75;5115962;28;20627;-70
2022/05/13 07:31:49;;;;;;;5.83;5.40;;;;;;;13.24;80.71;101308.50;5115953;28;20185;-70
2022/05/13 07:34:16;;;;;;;6.60;6.00;;;;;;;13.30;81.42;101305.59;5116387;28;20180;-69
2022/05/13 07:36:42;;;;;;;7.07;5.60;;;;;;;13.29;79.64;101303.91;5115262;28;20247;-70
2022/05/13 07:41:54;;;;;;;4.87;4.50;;;;;;;13.33;79.21;101315.97;5116081;28;20170;-70
2022/05/13 07:44:20;;;;;;;9.10;4.53;;;;;;;13.43;79.94;101319.94;5115661;28;20575;-69
2022/05/13 07:46:47;;;;;;;5.27;4.30;;;;;;;13.59;79.11;101311.38;5115625;28;20591;-69
2022/05/13 07:49:13;;;;;;;4.83;4.70;;;;;;;13.68;80.62;101309.16;5115510;28;20212;-69
2022/05/13 07:51:40;;;;;;;11.63;5.50;;;;;;;13.61;79.53;101317.41;5115600;28;20534;-69
2022/05/13 07:54:06;;;;;;;5.27;4.93;;;;;;;13.62;79.63;101319.13;5115996;28;20209;-70
2022/05/13 07:56:33;;;;;;;8.87;3.87;;;;;;;13.62;79.57;101319.13;5116062;28;20595;-69
2022/05/13 07:59:02;;;;;;;4.37;4.00;;;;;;;13.63;80.42;101315.56;5115363;28;20257;-70
2022/05/13 08:01:29;;;;;;;5.10;4.50;;;;;;;13.64;80.47;101312.00;5115356;28;20238;-70
2022/05/13 08:03:56;;;;;;;6.47;4.90;;;;;;;13.79;80.94;101313.97;5115266;28;20204;-69
2022/05/13 08:06:23;;;;;;;7.70;5.20;;;;;;;13.92;80.53;101315.09;5115205;28;20181;-70
2022/05/13 08:08:56;;;;;;;4.83;4.03;;;;;;;13.87;79.73;101314.47;5115114;28;20253;-70
2022/05/13 08:11:26;;;;;;;5.30;4.90;;;;;;;13.97;79.56;101310.47;5115412;28;20185;-70
2022/05/13 08:13:52;;;;;;;4.63;3.90;;;;;;;13.97;78.50;101310.47;5115351;28;20700;-70
2022/05/13 08:16:21;;;;;;;4.53;4.17;;;;;;;14.11;80.60;101317.75;5115225;28;20746;-70
2022/05/13 08:18:49;;;;;;;5.40;5.00;;;;;;;14.12;77.93;101318.59;5114942;28;20718;-70
2022/05/13 08:21:15;;;;;;;4.80;4.50;;;;;;;14.30;78.22;101315.13;5114957;28;20188;-70
2022/05/13 08:23:42;;;;;;;5.17;4.33;;;;;;;14.16;76.57;101305.22;5114887;28;20189;-70
2022/05/13 08:26:08;;;;;;;7.30;4.60;;;;;;;14.36;78.00;101312.19;5114951;28;20204;-70
2022/05/13 08:28:35;;;;;;;5.67;5.23;;;;;;;14.36;78.33;101314.84;5114772;28;20208;-69
2022/05/13 08:31:02;;;;;;;4.53;4.17;;;;;;;14.31;77.15;101309.78;5115004;28;20604;-70
2022/05/13 08:33:29;;;;;;;7.67;4.50;;;;;;;14.47;78.49;101315.19;5114752;28;20196;-70
2022/05/13 08:35:59;;;;;;;5.23;4.73;;;;;;;14.45;77.66;101306.47;5114964;28;20565;-70
2022/05/13 08:38:28;;;;;;;4.67;4.47;;;;;;;14.64;75.74;101317.00;5114571;28;20209;-70
2022/05/13 08:41:07;;;;;;;12.57;4.87;;;;;;;14.49;75.55;101317.75;5115168;28;20185;-69
2022/05/13 08:43:38;;;;;;;18.40;4.23;;;;;;;14.65;77.22;101313.47;5114542;28;20173;-70
2022/05/13 08:46:16;;;;;;;6.70;4.27;;;;;;;14.80;73.57;101317.97;5114533;28;20195;-70
2022/05/13 08:48:53;;;;;;;4.17;3.90;;;;;;;14.76;73.67;101312.94;5113880;28;20552;-70
2022/05/13 08:51:41;;;;;;;12.13;4.60;;;;;;;14.75;74.74;101308.59;5115005;28;20181;-70
2022/05/13 08:54:14;;;;;;;4.60;4.40;;;;;;;15.16;75.60;101319.72;5114673;28;20176;-71
2022/05/13 08:56:48;;;;;;;5.07;4.77;;;;;;;15.06;74.90;101313.19;5114540;28;20235;-70
2022/05/13 08:59:26;;;;;;;15.27;5.23;;;;;;;15.05;75.04;101316.75;5114488;28;20200;-70
2022/05/13 09:02:01;;;;;;;5.50;5.00;;;;;;;15.19;75.05;101324.81;5114805;28;20173;-70
2022/05/13 09:04:40;;;;;;;4.87;4.70;;;;;;;15.37;75.17;101317.75;5114419;28;20581;-70
2022/05/13 09:07:19;;;;;;;6.17;5.73;;;;;;;15.34;73.59;101312.63;5114180;28;20166;-70
2022/05/13 09:09:51;;;;;;;8.77;6.03;;;;;;;15.01;73.92;101318.72;5114321;28;20693;-69
2022/05/13 09:12:27;;;;;;;7.17;6.33;;;;;;;14.85;73.64;101317.75;5114372;28;20181;-69
2022/05/13 09:15:11;;;;;;;7.10;6.47;;;;;;;14.70;74.33;101336.94;5114258;28;20180;-70
2022/05/13 09:18:05;;;;;;;8.40;5.40;;;;;;;14.64;74.58;101322.28;5095551;28;20209;-70
2022/05/13 09:20:56;;;;;;;5.67;5.33;;;;;;;14.72;76.05;101330.69;5114182;28;20177;-69
2022/05/13 09:23:23;;;;;;;5.73;5.43;;;;;;;14.69;74.93;101336.09;5113883;28;20169;-69
2022/05/13 09:26:09;;;;;;;6.23;5.83;;;;;;;14.72;74.14;101325.41;5114151;28;20201;-69
2022/05/13 09:28:57;;;;;;;5.17;4.80;;;;;;;14.72;74.70;101329.84;5114014;28;20197;-69
2022/05/13 09:31:28;;;;;;;5.33;5.03;;;;;;;14.96;74.01;101333.88;5113723;28;20181;-69
2022/05/13 09:34:39;;;;;;;9.17;8.43;;;;;;;14.89;70.30;101340.41;5114016;28;20174;-69
2022/05/13 09:37:05;;;;;;;9.63;8.93;;;;;;;15.05;71.41;101336.06;5113707;28;20228;-69
2022/05/13 09:40:27;;;;;;;15.67;8.60;;;;;;;15.18;70.17;101344.22;5113653;28;20261;-69
2022/05/13 09:42:56;;;;;;;8.17;7.50;;;;;;;15.04;70.54;101337.00;5047835;28;20230;-69
2022/05/13 09:45:33;;;;;;;7.97;6.57;;;;;;;15.13;70.80;101336.53;5114465;28;20190;-69
2022/05/13 09:48:05;;;;;;;10.90;6.97;;;;;;;15.20;71.67;101337.06;5113809;28;20177;-69
2022/05/13 09:50:42;;;;;;;6.70;6.50;;;;;;;15.07;71.53;101339.50;5113948;28;20169;-70
2022/05/13 09:53:20;;;;;;;9.00;6.10;;;;;;;15.15;71.89;101341.75;5113892;28;20518;-69
2022/05/13 09:55:58;;;;;;;5.57;5.17;;;;;;;15.06;72.06;101343.03;5113864;28;20177;-70
2022/05/13 09:58:32;;;;;;;9.03;5.00;;;;;;;15.10;72.52;101339.34;5113332;28;20286;-69
2022/05/13 10:01:13;;;;;;;4.60;4.30;;;;;;;14.96;72.04;101347.06;5117132;28;20297;-69
2022/05/13 10:03:41;;;;;;;5.20;4.77;;;;;;;14.99;72.08;101341.63;5117918;28;20177;-69
2022/05/13 10:06:11;;;;;;;5.83;5.23;;;;;;;15.02;72.98;101341.50;5117589;28;20655;-70
2022/05/13 10:08:47;;;;;;;6.27;5.67;;;;;;;15.14;71.75;101343.53;5117519;28;20227;-69
2022/05/13 10:14:29;;;;;;;6.20;5.67;;;;;;;15.13;69.85;101340.94;5117446;28;20213;-69
2022/05/13 10:17:02;;;;;;;5.50;5.30;;;;;;;15.10;69.36;101341.13;5117865;28;20197;-69
2022/05/13 10:19:44;;;;;;;5.37;5.00;;;;;;;15.24;70.77;101338.63;5117491;28;20213;-69
2022/05/13 10:22:31;;;;;;;8.90;5.97;;;;;;;15.54;69.53;101344.13;5117903;28;20211;-69
2022/05/13 10:25:03;;;;;;;8.37;4.87;;;;;;;15.89;66.44;101344.09;5117573;28;20174;-69
2022/05/13 10:27:36;;;;;;;5.40;5.00;;;;;;;16.15;67.07;101348.84;5117221;28;20193;-70
2022/05/13 10:30:09;;;;;;;7.40;5.60;;;;;;;16.12;66.88;101338.41;5117172;28;20205;-69
2022/05/13 10:32:53;;;;;;;6.43;5.83;;;;;;;16.03;65.81;101338.91;5117480;28;20174;-69
2022/05/13 10:35:24;;;;;;;5.93;5.77;;;;;;;15.96;68.04;101337.53;5117441;28;20190;-69
2022/05/13 10:38:18;;;;;;;7.93;7.37;;;;;;;15.91;67.10;101339.56;5117271;28;20242;-69
2022/05/13 10:40:47;;;;;;;6.40;6.13;;;;;;;15.91;67.57;101334.28;5117283;28;20200;-69
2022/05/13 10:43:23;;;;;;;6.27;5.90;;;;;;;15.91;67.04;101329.84;5117197;28;20588;-70
2022/05/13 10:45:52;;;;;;;6.97;6.20;;;;;;;15.88;66.89;101340.59;5117218;28;20549;-69
2022/05/13 10:48:27;;;;;;;6.80;6.03;;;;;;;15.86;69.05;101338.97;5116839;28;20246;-69
2022/05/13 10:51:18;;;;;;;6.90;6.20;;;;;;;15.78;69.04;101349.06;5117181;28;20181;-70
2022/05/13 10:54:24;;;;;;;6.73;6.23;;;;;;;15.62;68.51;101349.88;5117268;28;20196;-70
2022/05/13 10:57:06;;;;;;;7.67;6.27;;;;;;;15.56;68.74;101344.03;5116614;28;20242;-69
2022/05/13 10:59:47;;;;;;;5.67;5.27;;;;;;;15.63;70.85;101346.31;5116621;28;20204;-69
2022/05/13 11:02:43;;;;;;;6.70;6.10;;;;;;;15.57;69.03;101354.53;5117137;28;20169;-69
2022/05/13 11:05:28;;;;;;;6.67;6.37;;;;;;;15.65;69.30;101359.44;5116720;28;20598;-69
2022/05/13 11:08:00;;;;;;;6.80;6.03;;;;;;;15.90;68.72;101359.84;5116969;28;20177;-69
2022/05/13 11:10:44;;;;;;;7.07;6.53;;;;;;;16.00;67.71;101356.72;5116647;28;20204;-69
2022/05/13 11:13:27;;;;;;;11.40;5.87;;;;;;;16.33;69.15;101349.59;5116074;28;20576;-70
2022/05/13 11:16:01;;;;;;;7.33;6.77;;;;;;;16.41;66.82;101346.53;5120404;27;20184;-69
2022/05/13 11:18:53;;;;;;;8.50;7.27;;;;;;;16.49;66.71;101339.03;5135505;27;20208;-69
2022/05/13 11:21:52;;;;;;;6.73;6.47;;;;;;;16.55;65.32;101351.06;5136698;27;20185;-70
2022/05/13 11:27:49;;;;;;;12.67;6.03;;;;;;;16.69;63.79;101352.00;5118102;27;20208;-69
2022/05/13 11:30:25;;;;;;;9.27;7.47;;;;;;;16.66;64.32;101349.53;5134353;27;20564;-68
2022/05/13 11:33:07;;;;;;;8.67;8.23;;;;;;;16.58;63.48;101357.03;5132484;27;20195;-69
2022/05/13 11:35:39;;;;;;;8.40;8.00;;;;;;;16.52;63.06;101357.38;5133771;27;20199;-69
2022/05/13 11:38:16;;;;;;;7.93;7.33;;;;;;;16.53;64.21;101356.44;5132250;27;20250;-69
2022/05/13 11:40:59;;;;;;;9.07;7.93;;;;;;;16.63;63.02;101352.31;5121358;27;20709;-70
2022/05/13 11:44:05;;;;;;;7.67;7.13;;;;;;;16.52;63.14;101362.66;5136120;27;20192;-69
2022/05/13 11:46:48;;;;;;;11.30;9.80;;;;;;;16.57;62.99;101360.59;5135156;27;20658;-70
2022/05/13 11:49:25;;;;;;;9.03;8.50;;;;;;;16.61;65.15;101367.44;5136093;27;20215;-70
2022/05/13 11:51:54;;;;;;;7.90;7.73;;;;;;;16.80;65.24;101361.16;5136121;27;20675;-69
2022/05/13 11:54:27;;;;;;;9.47;8.80;;;;;;;16.93;64.21;101363.00;5136068;27;20196;-70
2022/05/13 11:57:28;;;;;;;9.27;8.87;;;;;;;16.89;63.97;101360.59;5134723;27;20607;-69
2022/05/13 11:59:55;;;;;;;10.03;9.23;;;;;;;17.27;63.65;101358.38;5133085;27;20220;-70
2022/05/13 12:02:48;;;;;;;10.90;9.87;;;;;;;17.16;62.70;101353.72;5135230;27;20224;-70
2022/05/13 12:05:17;;;;;;;10.60;9.67;;;;;;;17.26;62.87;101357.53;5133586;27;20665;-69